Centre Island, Australia
Current Conditions -  °F | °C
As of 10:00 AM on Thursday 27 Nov 2014 (Local Time) from YGTE Reporting Station
Broken Clouds Broken Clouds  
Wind Chill: 86°   Ceiling: 5500
Heat Index: 93°   Visibility: 6mi
Dew Point: 73°   Wind: 13mph
Humidity: 66%   Direction: 330°NNW
Pressure: 29.83"   Gusts: NA
Location:  15.7°S, 136.78°E
Report Text: YGTE 270100Z AUTO 33011KT 270V340 9999 // SCT030 BKN055 BKN087 30/23 Q1010
Loading
Personal Weather Stations






























Interactive Weather Map New forecast layout! Learn more

10-Day Weather Forecast

Advertisements
Track Severe Weather on mobile